»·PEaware :: N206DS KMYF-KONT

N206DS :: KMYF-KONT

FLIGHT INFORMATION

Flight Status: Arrived
Operator: Privately registered:
United States
More flights under this callsign
Pilot: Anonymous 26047 (26047)
Aircraft: CESSNA 172 SKYHAWK
(C172)
More flights by this aircraft type
Origin: KMYF Montgomery
United States
Destination: KONT Ontario Intl
United States
More flights between these airports :: More routes between these airports
Route: +OCN V23 DANAH V363 POXKU V8 PDZ
File this flight plan on PilotEdge
Remarks:
Altitude:
(Current/Filed)
6,000ft
Speed:
(Current/Filed)
120kts
Departed: 26-Sep-19 12:02 PM
Arrived: 26-Sep-19 01:05 PM
Distance/Time
Traveled:
78nm/1:03
Distance/Time
To Go:
Arrived

Flight Plot

Page will automatically refresh every two minutes.


Map Options




Map Legend


Flown Route
Filed Route
Departure Airport
Arrival Airport
Navaid (VOR, NDB)
Fix

Horizontal Profiles

Position Reports

Time Latitude Longitude Heading Altitude Ground
Speed
26-Sep-19 11:36 32.812255 -117.137158 26 418ft 0kts
26-Sep-19 11:37 32.812255 -117.137158 26 418ft 0kts
26-Sep-19 11:38 32.812255 -117.137158 26 418ft 0kts
26-Sep-19 11:39 32.812255 -117.137158 26 418ft 0kts
26-Sep-19 11:40 32.812255 -117.137158 26 418ft 0kts
26-Sep-19 11:41 32.812255 -117.137158 26 418ft 0kts
26-Sep-19 11:42 32.812255 -117.137158 26 418ft 0kts
26-Sep-19 11:43 32.812255 -117.137158 26 418ft 0kts
26-Sep-19 11:44 32.812255 -117.137158 26 418ft 0kts
26-Sep-19 11:45 32.812255 -117.137158 26 418ft 0kts
26-Sep-19 11:46 32.812255 -117.137158 26 418ft 0kts
26-Sep-19 11:47 32.812255 -117.137158 26 418ft 0kts
26-Sep-19 11:48 32.812255 -117.137158 26 418ft 0kts
26-Sep-19 11:49 32.812255 -117.137158 26 418ft 0kts
26-Sep-19 11:50 32.812255 -117.137158 26 418ft 0kts
26-Sep-19 11:51 32.812255 -117.137158 26 418ft 0kts
26-Sep-19 11:52 32.812255 -117.137158 26 418ft 0kts
26-Sep-19 11:53 32.812255 -117.137158 26 418ft 0kts
26-Sep-19 11:54 32.812255 -117.137158 26 418ft 0kts
26-Sep-19 11:55 32.811775 -117.135818 101 417ft 4kts
26-Sep-19 11:56 32.811767 -117.134264 117 417ft 21kts
26-Sep-19 11:57 32.812104 -117.131408 23 422ft 0kts
26-Sep-19 11:58 32.812104 -117.131408 23 422ft 0kts
26-Sep-19 11:59 32.812104 -117.131408 23 422ft 0kts
26-Sep-19 12:00 32.813138 -117.131989 295 423ft 15kts
26-Sep-19 12:01 32.820910 -117.148000 298 836ft 75kts
26-Sep-19 12:02 32.829378 -117.172177 286 1717ft 83kts
26-Sep-19 12:03 32.837591 -117.197789 285 2659ft 78kts
26-Sep-19 12:04 32.847132 -117.225055 286 3008ft 107kts
26-Sep-19 12:05 32.857659 -117.256021 286 3674ft 88kts
26-Sep-19 12:06 32.867239 -117.282855 286 4596ft 86kts
26-Sep-19 12:07 32.885044 -117.300996 331 5448ft 92kts
26-Sep-19 12:08 32.910113 -117.309628 338 6000ft 111kts
26-Sep-19 12:09 32.940883 -117.319485 339 5997ft 113kts
26-Sep-19 12:10 32.970551 -117.329107 339 5999ft 111kts
26-Sep-19 12:11 33.000873 -117.339025 339 5998ft 112kts
26-Sep-19 12:12 33.031511 -117.349060 339 5998ft 111kts
26-Sep-19 12:13 33.062220 -117.359130 340 5998ft 111kts
26-Sep-19 12:14 33.092963 -117.369221 340 5998ft 111kts
26-Sep-19 12:15 33.123499 -117.379250 340 5999ft 111kts
26-Sep-19 12:16 33.153414 -117.389081 340 5999ft 111kts
26-Sep-19 12:17 33.182365 -117.398603 340 5999ft 111kts
26-Sep-19 12:18 33.211553 -117.408210 340 5999ft 111kts
26-Sep-19 12:19 33.241036 -117.418144 334 5998ft 110kts
26-Sep-19 12:20 33.262173 -117.442132 314 6026ft 108kts
26-Sep-19 12:21 33.283605 -117.467078 314 6026ft 109kts
26-Sep-19 12:22 33.304840 -117.491756 314 6026ft 109kts
26-Sep-19 12:23 33.326398 -117.516804 314 6026ft 109kts
26-Sep-19 12:24 33.348071 -117.541990 314 6026ft 109kts
26-Sep-19 12:25 33.370152 -117.567664 314 6026ft 109kts
26-Sep-19 12:26 33.392101 -117.593200 314 6026ft 109kts
26-Sep-19 12:27 33.414795 -117.619618 314 6025ft 109kts
26-Sep-19 12:28 33.437410 -117.645975 314 6024ft 109kts
26-Sep-19 12:29 33.459499 -117.672133 312 6024ft 109kts
26-Sep-19 12:30 33.482106 -117.698048 329 6016ft 111kts
26-Sep-19 12:31 33.512075 -117.703363 347 6022ft 113kts
26-Sep-19 12:32 33.540571 -117.707802 346 6021ft 113kts
26-Sep-19 12:33 33.568866 -117.712624 356 6017ft 117kts
26-Sep-19 12:34 33.599825 -117.717967 357 6018ft 122kts
26-Sep-19 12:35 33.633446 -117.723675 345 6019ft 117kts
26-Sep-19 12:37 33.664945 -117.729357 345 6020ft 113kts
26-Sep-19 12:38 33.696368 -117.741295 332 6020ft 110kts
26-Sep-19 12:39 33.723067 -117.753480 334 6021ft 110kts
26-Sep-19 12:40 33.749694 -117.765487 334 6021ft 110kts
26-Sep-19 12:41 33.777673 -117.779082 347 6017ft 113kts
26-Sep-19 12:42 33.808165 -117.779874 353 6020ft 114kts
26-Sep-19 12:43 33.839270 -117.780385 353 6020ft 114kts
26-Sep-19 12:44 33.863366 -117.765434 72 6010ft 128kts
26-Sep-19 12:45 33.870985 -117.725405 71 6013ft 128kts
26-Sep-19 12:46 33.879770 -117.686080 69 6014ft 127kts
26-Sep-19 12:47 33.889933 -117.643898 69 5712ft 127kts
26-Sep-19 12:48 33.899146 -117.606734 68 5247ft 124kts
26-Sep-19 12:49 33.908633 -117.568723 68 5019ft 118kts
26-Sep-19 12:50 33.918646 -117.529801 67 5017ft 120kts
26-Sep-19 12:51 33.933954 -117.494831 54 5018ft 115kts
26-Sep-19 12:52 33.950130 -117.461151 56 5018ft 114kts
26-Sep-19 12:53 33.966087 -117.426644 56 5018ft 113kts
26-Sep-19 12:54 33.981369 -117.393471 57 5018ft 114kts
26-Sep-19 12:54 33.994416 -117.365099 57 5017ft 115kts
26-Sep-19 12:56 34.019443 -117.339884 336 5020ft 113kts
26-Sep-19 12:57 34.047178 -117.359540 331 4544ft 116kts
26-Sep-19 12:57 34.054819 -117.389144 272 4121ft 121kts
26-Sep-19 12:59 34.054834 -117.436526 272 3320ft 116kts
26-Sep-19 12:59 34.054867 -117.465858 272 2870ft 102kts
26-Sep-19 13:00 34.054860 -117.500390 271 2323ft 109kts
26-Sep-19 13:02 34.054922 -117.541187 271 1626ft 99kts
26-Sep-19 13:02 34.054911 -117.562411 272 1305ft 57kts
26-Sep-19 13:03 34.055022 -117.580237 271 1014ft 57kts
26-Sep-19 13:05 34.054163 -117.589713 184 916ft 0kts
26-Sep-19 13:05 34.054163 -117.589713 184 916ft 0kts
26-Sep-19 13:06 34.053853 -117.591825 270 915ft 16kts
26-Sep-19 13:07 34.053837 -117.597880 269 915ft 19kts
26-Sep-19 13:08 34.053844 -117.603478 271 918ft 16kts
26-Sep-19 13:09 34.053799 -117.608639 269 921ft 17kts

Navigation Log

Ident Type
Flight plan parsing failed, navigation log unavailable